Time;durP1;ratioP1;P1;durP2;ratioP2;P2;SDS_P1;SDS_P2;PMS_P1;PMS_P2;Temp;Humidity;BMP_temperature;BMP_pressure;BME280_temperature;BME280_humidity;BME280_pressure;Samples;Min_cycle;Max_cycle;Signal;HPM_P1;HPM_P2
2021/03/07 12:07:47;;;;;;;5.60;2.38;;;8.50;53.40;;;;;;5364799;23;20360;-76
2021/03/07 12:10:13;;;;;;;4.00;2.33;;;8.50;54.20;;;;;;4910620;29;20044;-71
2021/03/07 12:12:38;;;;;;;5.32;2.50;;;8.40;53.40;;;;;;4915441;29;20024;-72
2021/03/07 12:15:05;;;;;;;4.90;2.25;;;8.30;55.20;;;;;;4913871;29;20361;-72
2021/03/07 12:17:30;;;;;;;5.97;2.50;;;8.30;57.40;;;;;;4915591;29;20115;-76
2021/03/07 12:19:56;;;;;;;2.55;2.10;;;8.30;56.20;;;;;;4915835;29;20112;-74
2021/03/07 12:22:21;;;;;;;3.00;2.38;;;8.40;56.40;;;;;;4915221;29;20052;-78
2021/03/07 12:24:47;;;;;;;3.53;2.10;;;8.50;55.60;;;;;;4916568;29;20036;-73
2021/03/07 12:27:12;;;;;;;13.57;2.53;;;8.60;55.00;;;;;;4905088;29;20099;-76
2021/03/07 12:29:38;;;;;;;4.65;2.17;;;8.70;54.70;;;;;;4915395;29;20709;-76
2021/03/07 12:32:05;;;;;;;3.17;2.47;;;8.80;54.40;;;;;;4914984;29;20024;-70
2021/03/07 12:34:32;;;;;;;3.55;2.00;;;8.80;55.30;;;;;;4915878;29;20024;-73
2021/03/07 12:36:58;;;;;;;4.07;2.08;;;8.90;54.60;;;;;;4915807;29;20032;-73
2021/03/07 12:39:23;;;;;;;5.75;2.30;;;9.00;53.90;;;;;;4914461;29;20396;-77
2021/03/07 12:41:49;;;;;;;4.68;2.40;;;9.00;54.70;;;;;;4915730;29;20040;-74
2021/03/07 12:44:15;;;;;;;3.17;2.08;;;9.00;55.10;;;;;;4913384;29;20472;-75
2021/03/07 12:46:40;;;;;;;4.43;2.20;;;8.90;54.50;;;;;;4915187;29;20028;-77
2021/03/07 12:49:07;;;;;;;2.85;2.03;;;8.90;54.90;;;;;;4914505;29;20184;-78
2021/03/07 12:51:33;;;;;;;3.03;2.10;;;8.90;54.60;;;;;;4914414;29;20024;-74
2021/03/07 12:53:59;;;;;;;4.22;2.15;;;8.90;55.00;;;;;;4914740;29;20388;-75
2021/03/07 12:56:25;;;;;;;4.38;2.00;;;8.90;54.30;;;;;;4913250;29;20017;-71
2021/03/07 12:58:50;;;;;;;5.05;2.30;;;8.90;53.80;;;;;;4914783;29;20540;-72
2021/03/07 13:01:17;;;;;;;4.05;1.90;;;9.00;54.00;;;;;;4914227;29;20032;-76
2021/03/07 13:03:43;;;;;;;2.45;2.25;;;8.90;53.70;;;;;;4913535;29;20023;-72
2021/03/07 13:06:09;;;;;;;3.88;2.33;;;8.90;53.70;;;;;;4915541;29;20460;-70
2021/03/07 13:08:34;;;;;;;4.22;2.15;;;8.80;53.60;;;;;;4915506;29;20484;-70
2021/03/07 13:11:00;;;;;;;2.80;2.30;;;8.70;53.90;;;;;;4915406;29;20032;-70
2021/03/07 13:13:26;;;;;;;4.25;2.45;;;8.60;55.00;;;;;;4915500;29;20354;-71
2021/03/07 13:15:51;;;;;;;4.63;3.00;;;8.60;55.90;;;;;;4915198;29;20035;-71
2021/03/07 13:18:17;;;;;;;6.88;3.45;;;8.40;56.40;;;;;;4918152;29;20032;-71
2021/03/07 13:20:42;;;;;;;3.10;2.60;;;8.40;56.70;;;;;;4919329;29;20480;-71
2021/03/07 13:23:08;;;;;;;4.63;2.63;;;8.30;57.30;;;;;;4919128;29;20040;-71
2021/03/07 13:25:33;;;;;;;3.10;2.80;;;8.20;58.20;;;;;;4918374;29;20047;-70
2021/03/07 13:27:59;;;;;;;3.22;2.67;;;8.30;59.20;;;;;;4919141;29;20067;-71
2021/03/07 13:30:25;;;;;;;7.13;3.22;;;8.40;58.00;;;;;;4918870;29;20032;-70
2021/03/07 13:32:50;;;;;;;6.97;3.08;;;8.40;57.60;;;;;;4918428;29;20031;-70
2021/03/07 13:35:16;;;;;;;4.28;2.90;;;8.30;57.90;;;;;;4918725;29;20052;-70
2021/03/07 13:37:41;;;;;;;4.88;2.70;;;8.30;58.00;;;;;;4919095;29;20465;-70
2021/03/07 13:40:07;;;;;;;3.55;2.38;;;8.30;58.20;;;;;;4918296;29;20087;-70
2021/03/07 13:42:34;;;;;;;4.28;2.78;;;8.30;58.30;;;;;;4918697;29;20091;-70
2021/03/07 13:44:59;;;;;;;3.63;2.40;;;8.30;57.60;;;;;;4918920;29;20020;-71
2021/03/07 13:47:25;;;;;;;8.48;3.00;;;8.20;57.40;;;;;;4917716;29;20111;-71
2021/03/07 13:49:51;;;;;;;3.65;2.45;;;8.10;57.70;;;;;;4918615;29;20040;-71
2021/03/07 13:52:16;;;;;;;7.05;2.92;;;8.10;57.50;;;;;;4917224;29;20028;-70
2021/03/07 13:54:42;;;;;;;4.72;2.70;;;8.00;58.40;;;;;;4918233;29;20496;-69
2021/03/07 13:57:08;;;;;;;3.78;2.88;;;8.00;57.50;;;;;;4918781;29;20028;-72
2021/03/07 13:59:33;;;;;;;3.38;2.58;;;7.90;57.50;;;;;;4918568;29;20083;-70
2021/03/07 14:01:59;;;;;;;6.97;3.35;;;7.90;57.90;;;;;;4916889;29;20036;-70
2021/03/07 14:04:24;;;;;;;6.45;4.38;;;7.80;58.60;;;;;;4918270;29;20079;-70
2021/03/07 14:06:51;;;;;;;6.93;4.32;;;7.80;58.40;;;;;;4918573;29;20112;-70
2021/03/07 14:09:17;;;;;;;7.15;3.92;;;7.90;56.60;;;;;;4917224;29;20075;-70
2021/03/07 14:11:42;;;;;;;3.63;3.30;;;7.90;56.90;;;;;;4918578;29;20465;-71
2021/03/07 14:14:08;;;;;;;4.22;3.30;;;7.90;56.90;;;;;;4917640;29;20361;-71
2021/03/07 14:16:33;;;;;;;3.78;3.10;;;8.00;56.60;;;;;;4918407;29;20420;-71
2021/03/07 14:18:59;;;;;;;4.80;3.25;;;8.10;56.10;;;;;;4918190;29;20024;-70
2021/03/07 14:21:24;;;;;;;4.68;3.45;;;8.30;56.00;;;;;;4917517;29;20032;-70
2021/03/07 14:23:50;;;;;;;4.13;3.35;;;8.30;54.80;;;;;;4918349;29;20472;-70
2021/03/07 14:26:15;;;;;;;6.43;3.63;;;8.20;54.30;;;;;;4917931;29;20428;-70
2021/03/07 14:28:41;;;;;;;7.65;3.90;;;8.00;54.50;;;;;;4916381;29;20024;-70
2021/03/07 14:31:06;;;;;;;5.15;4.18;;;8.00;54.20;;;;;;4918096;29;20115;-70
2021/03/07 14:33:32;;;;;;;5.88;4.57;;;8.00;54.10;;;;;;4917520;29;20054;-69
2021/03/07 14:35:57;;;;;;;9.30;4.22;;;7.90;54.30;;;;;;4917317;29;20503;-70
2021/03/07 14:38:24;;;;;;;6.25;4.47;;;7.90;54.00;;;;;;4917602;29;20107;-71
2021/03/07 14:40:49;;;;;;;7.25;4.68;;;7.80;54.10;;;;;;4918102;29;20035;-71
2021/03/07 14:43:15;;;;;;;6.00;4.75;;;7.80;54.50;;;;;;4916611;29;20024;-69
2021/03/07 14:45:41;;;;;;;6.65;5.53;;;7.70;54.80;;;;;;4917710;29;20059;-70
2021/03/07 14:48:07;;;;;;;9.38;6.30;;;7.70;55.10;;;;;;4917546;29;20084;-70
2021/03/07 14:50:33;;;;;;;9.00;6.38;;;7.60;55.00;;;;;;4916508;29;20403;-70
2021/03/07 14:52:58;;;;;;;7.75;6.18;;;7.60;55.60;;;;;;4916352;29;20110;-71
2021/03/07 14:55:25;;;;;;;9.70;6.68;;;7.60;55.50;;;;;;4917136;29;20056;-70
2021/03/07 14:57:50;;;;;;;11.23;6.72;;;7.80;55.90;;;;;;4915704;29;20030;-70
2021/03/07 15:00:21;;;;;;;8.65;6.68;;;8.00;55.20;;;;;;4915900;29;20032;-71
2021/03/07 15:02:48;;;;;;;9.38;7.03;;;8.20;55.40;;;;;;4916349;29;20021;-71
2021/03/07 15:05:13;;;;;;;8.70;6.82;;;8.40;54.90;;;;;;4916255;29;20047;-71
2021/03/07 15:07:39;;;;;;;11.52;7.55;;;8.40;53.60;;;;;;4915992;29;20481;-71
2021/03/07 15:10:14;;;;;;;10.68;7.40;;;8.40;53.40;;;;;;4917288;29;20040;-70
2021/03/07 15:12:40;;;;;;;9.98;7.75;;;8.30;53.90;;;;;;4916577;29;20028;-71
2021/03/07 15:15:07;;;;;;;10.25;8.15;;;8.20;54.50;;;;;;4917368;29;20091;-71
2021/03/07 15:17:33;;;;;;;10.20;7.65;;;8.20;54.80;;;;;;4916054;29;20024;-70
2021/03/07 15:19:59;;;;;;;9.30;7.47;;;8.20;54.60;;;;;;4916727;29;20035;-70
2021/03/07 15:22:26;;;;;;;11.70;8.27;;;8.20;54.30;;;;;;4915307;29;20028;-70
2021/03/07 15:24:51;;;;;;;9.95;7.88;;;8.10;54.50;;;;;;4916262;29;20024;-70
2021/03/07 15:27:17;;;;;;;11.63;7.68;;;8.00;54.10;;;;;;4915367;29;20460;-70
2021/03/07 15:29:42;;;;;;;11.57;8.18;;;7.90;54.00;;;;;;4915571;29;20092;-70
2021/03/07 15:32:08;;;;;;;11.77;8.35;;;7.80;54.50;;;;;;4916298;29;20047;-73
2021/03/07 15:34:34;;;;;;;10.90;8.25;;;7.90;55.20;;;;;;4916653;29;20515;-73
2021/03/07 15:36:59;;;;;;;10.85;8.43;;;7.90;55.60;;;;;;4911043;29;20091;-78
2021/03/07 15:39:26;;;;;;;15.52;8.43;;;7.90;55.50;;;;;;4913139;29;20035;-85
2021/03/07 15:41:52;;;;;;;11.52;8.90;;;7.90;55.40;;;;;;4912656;29;20106;-78
2021/03/07 15:44:17;;;;;;;19.83;13.30;;;7.80;55.70;;;;;;4912692;29;20484;-75
2021/03/07 15:46:43;;;;;;;14.23;11.55;;;7.90;55.90;;;;;;4911477;29;20040;-77
2021/03/07 15:49:09;;;;;;;11.20;9.38;;;7.90;56.30;;;;;;4913087;29;20493;-77
2021/03/07 15:51:34;;;;;;;12.82;9.13;;;7.90;56.20;;;;;;4911890;29;20732;-73
2021/03/07 15:54:01;;;;;;;10.70;9.23;;;7.80;56.50;;;;;;4911200;29;20039;-75
2021/03/07 15:56:26;;;;;;;14.00;10.82;;;7.80;57.10;;;;;;4912464;29;20031;-75
2021/03/07 15:58:52;;;;;;;13.75;10.57;;;7.70;57.50;;;;;;4911742;29;20036;-74
2021/03/07 16:01:18;;;;;;;13.75;9.38;;;7.70;57.80;;;;;;4910899;29;20473;-74
2021/03/07 16:03:43;;;;;;;15.43;9.93;;;7.70;57.70;;;;;;4913205;29;20059;-71
2021/03/07 16:06:09;;;;;;;11.38;8.50;;;7.70;58.00;;;;;;4912469;29;20032;-75
2021/03/07 16:08:35;;;;;;;14.05;9.55;;;7.60;58.30;;;;;;4910726;29;20055;-73
2021/03/07 16:11:01;;;;;;;13.70;11.07;;;7.60;57.80;;;;;;4911910;29;20048;-72
2021/03/07 16:13:27;;;;;;;14.30;10.55;;;7.60;57.50;;;;;;4912839;29;20032;-75
2021/03/07 16:15:52;;;;;;;13.13;10.52;;;7.50;58.50;;;;;;4910500;29;20575;-72
2021/03/07 16:18:18;;;;;;;12.98;9.95;;;7.40;59.40;;;;;;4911993;29;20030;-73
2021/03/07 16:20:43;;;;;;;13.40;10.55;;;7.40;58.30;;;;;;4911150;29;20493;-73
2021/03/07 16:23:09;;;;;;;14.95;10.57;;;7.30;57.90;;;;;;4912546;29;20663;-73
2021/03/07 16:25:36;;;;;;;13.43;10.70;;;7.40;58.30;;;;;;4912709;29;20028;-73
2021/03/07 16:28:03;;;;;;;13.63;11.13;;;7.40;59.00;;;;;;4910800;29;20032;-73
2021/03/07 16:30:29;;;;;;;15.82;12.00;;;7.50;58.30;;;;;;4912681;29;20524;-72
2021/03/07 16:32:54;;;;;;;15.73;12.15;;;7.50;57.80;;;;;;4910987;29;20031;-74
2021/03/07 16:35:21;;;;;;;18.52;12.18;;;7.40;58.60;;;;;;4911989;29;20044;-72
2021/03/07 16:37:47;;;;;;;16.83;12.15;;;7.40;59.60;;;;;;4911837;29;20751;-72
2021/03/07 16:40:12;;;;;;;16.15;13.07;;;7.50;59.60;;;;;;4912167;29;20060;-77
2021/03/07 16:42:38;;;;;;;19.80;13.70;;;7.50;59.30;;;;;;4912150;29;20096;-75
2021/03/07 16:45:04;;;;;;;17.85;13.40;;;7.40;58.80;;;;;;4911402;29;20024;-74
2021/03/07 16:47:30;;;;;;;17.15;12.65;;;7.50;59.30;;;;;;4912745;29;20489;-74
2021/03/07 16:49:56;;;;;;;15.48;12.75;;;7.40;59.00;;;;;;4913695;29;20080;-75
2021/03/07 16:52:21;;;;;;;16.60;13.05;;;7.40;59.40;;;;;;4917488;29;20028;-77
2021/03/07 16:54:47;;;;;;;15.63;12.30;;;7.40;59.20;;;;;;4919916;29;20035;-76
2021/03/07 16:57:13;;;;;;;18.17;12.95;;;7.40;59.70;;;;;;4919141;29;20437;-76
2021/03/07 16:59:38;;;;;;;18.13;13.77;;;7.40;60.20;;;;;;4917925;29;20056;-75
2021/03/07 17:02:04;;;;;;;17.00;13.35;;;7.40;60.20;;;;;;4919950;29;20032;-76
2021/03/07 17:04:30;;;;;;;21.23;14.48;;;7.40;59.80;;;;;;4917132;29;20366;-74
2021/03/07 17:06:57;;;;;;;17.50;12.93;;;7.30;60.20;;;;;;4919625;29;20035;-77
2021/03/07 17:09:23;;;;;;;18.65;13.85;;;7.30;60.50;;;;;;4919468;29;20048;-75
2021/03/07 17:11:49;;;;;;;21.77;14.30;;;7.30;60.50;;;;;;4917727;29;20035;-73
2021/03/07 17:14:15;;;;;;;17.63;14.10;;;7.30;60.70;;;;;;4918765;29;20036;-78
2021/03/07 17:16:40;;;;;;;18.75;15.18;;;7.30;60.80;;;;;;4917950;29;20028;-76
2021/03/07 17:19:06;;;;;;;18.35;15.10;;;7.30;60.40;;;;;;4917704;29;20501;-74
2021/03/07 17:21:32;;;;;;;19.50;13.90;;;7.10;61.30;;;;;;4919029;29;20112;-80
2021/03/07 17:23:57;;;;;;;20.48;13.98;;;7.10;61.50;;;;;;4918124;29;20067;-72
2021/03/07 17:26:23;;;;;;;18.90;13.48;;;7.00;61.50;;;;;;4917707;29;20053;-72
2021/03/07 17:28:49;;;;;;;19.77;14.68;;;7.00;62.00;;;;;;4919098;29;20477;-72
2021/03/07 17:31:15;;;;;;;21.02;14.30;;;7.00;62.10;;;;;;4918040;29;20024;-71
2021/03/07 17:33:41;;;;;;;18.45;14.05;;;7.00;62.30;;;;;;4919174;29;20051;-71
2021/03/07 17:36:07;;;;;;;20.52;14.43;;;7.00;62.30;;;;;;4918423;29;20100;-72
2021/03/07 17:38:33;;;;;;;17.85;12.93;;;6.90;62.50;;;;;;4910877;29;20730;-78
2021/03/07 17:40:59;;;;;;;16.02;12.77;;;6.80;62.50;;;;;;4916153;29;20107;-83
2021/03/07 17:43:25;;;;;;;19.13;14.23;;;6.80;62.90;;;;;;4905654;29;20118;-84
2021/03/07 17:45:51;;;;;;;19.73;13.80;;;6.80;62.90;;;;;;4916790;29;20540;-80
2021/03/07 17:48:17;;;;;;;17.60;14.57;;;6.80;62.90;;;;;;4917824;29;20024;-82
2021/03/07 17:50:42;;;;;;;18.85;14.57;;;6.70;63.10;;;;;;4918067;29;20032;-76
2021/03/07 17:53:08;;;;;;;21.77;14.68;;;6.70;63.30;;;;;;4915820;29;20482;-81
2021/03/07 17:55:34;;;;;;;19.25;14.32;;;6.60;63.60;;;;;;4917452;29;20024;-77
2021/03/07 17:58:00;;;;;;;16.92;13.95;;;6.70;64.50;;;;;;4917289;29;20024;-77
2021/03/07 18:00:26;;;;;;;18.25;14.27;;;6.70;64.80;;;;;;4917696;29;20464;-77
2021/03/07 18:02:53;;;;;;;18.88;14.73;;;6.70;64.30;;;;;;4917768;29;20472;-84
2021/03/07 18:05:19;;;;;;;19.73;15.27;;;6.80;64.20;;;;;;4916624;29;20473;-79
2021/03/07 18:07:45;;;;;;;16.83;14.13;;;6.80;64.60;;;;;;4916516;29;20572;-79
2021/03/07 18:10:11;;;;;;;18.77;14.48;;;6.80;65.00;;;;;;4916703;29;20123;-79
2021/03/07 18:12:37;;;;;;;17.83;13.98;;;6.80;64.70;;;;;;4915331;29;20032;-77
2021/03/07 18:15:03;;;;;;;19.73;14.57;;;6.80;64.60;;;;;;4916777;29;20020;-75
2021/03/07 18:17:29;;;;;;;20.38;14.68;;;6.70;64.90;;;;;;4917745;29;20575;-78
2021/03/07 18:19:54;;;;;;;22.10;16.23;;;6.70;65.50;;;;;;4918363;29;20103;-74
2021/03/07 18:22:20;;;;;;;20.65;14.57;;;6.60;65.10;;;;;;4915771;29;20020;-74
2021/03/07 18:24:45;;;;;;;19.00;15.45;;;6.60;65.00;;;;;;4917930;29;20437;-75
2021/03/07 18:27:11;;;;;;;18.30;15.38;;;6.60;65.10;;;;;;4915257;29;20020;-73
2021/03/07 18:29:37;;;;;;;20.42;15.80;;;6.60;65.90;;;;;;4915129;29;20067;-74
2021/03/07 18:32:03;;;;;;;17.50;13.73;;;6.50;65.40;;;;;;4916703;29;20036;-73
2021/03/07 18:34:29;;;;;;;20.35;15.65;;;6.60;65.50;;;;;;4916316;29;20042;-74
2021/03/07 18:36:54;;;;;;;21.70;15.88;;;6.50;65.10;;;;;;4917830;29;20020;-84
2021/03/07 18:39:20;;;;;;;21.35;16.63;;;6.50;65.80;;;;;;4916358;29;20112;-78
2021/03/07 18:41:46;;;;;;;19.83;15.98;;;6.50;65.80;;;;;;4916463;29;20028;-81
2021/03/07 18:44:11;;;;;;;19.42;16.27;;;6.50;65.50;;;;;;4916215;29;20036;-81
2021/03/07 18:46:37;;;;;;;18.90;15.88;;;6.50;65.80;;;;;;4916598;29;20111;-77
2021/03/07 18:49:03;;;;;;;21.42;15.68;;;6.50;65.60;;;;;;4915717;29;20128;-78
2021/03/07 18:51:34;;;;;;;21.52;14.77;;;6.50;65.90;;;;;;4916497;29;20504;-81
2021/03/07 18:54:01;;;;;;;20.20;15.65;;;6.50;65.70;;;;;;4917714;29;20473;-74
2021/03/07 18:56:26;;;;;;;20.90;15.73;;;6.60;65.90;;;;;;4915363;29;20060;-75
2021/03/07 18:58:52;;;;;;;23.52;17.98;;;6.50;66.00;;;;;;4916290;29;20075;-75
2021/03/07 19:01:20;;;;;;;21.85;17.25;;;6.50;66.70;;;;;;4916506;29;20024;-75
2021/03/07 19:03:46;;;;;;;22.98;17.35;;;6.60;66.70;;;;;;4914072;29;20028;-75
2021/03/07 19:06:11;;;;;;;23.45;17.67;;;6.60;66.60;;;;;;4913698;29;20191;-74
2021/03/07 19:08:37;;;;;;;28.20;18.38;;;6.60;66.40;;;;;;4913289;29;20095;-74
2021/03/07 19:11:02;;;;;;;25.52;18.40;;;6.50;66.50;;;;;;4912039;29;20384;-73
2021/03/07 19:13:28;;;;;;;26.35;18.50;;;6.50;66.50;;;;;;4911589;29;20115;-76
2021/03/07 19:15:53;;;;;;;24.83;18.80;;;6.50;66.60;;;;;;4913750;29;20036;-73
2021/03/07 19:18:21;;;;;;;29.10;18.88;;;6.50;66.80;;;;;;4911863;29;20038;-74
2021/03/07 19:20:46;;;;;;;27.17;19.63;;;6.50;67.00;;;;;;4913540;29;20495;-77
2021/03/07 19:23:12;;;;;;;29.00;19.77;;;6.50;66.80;;;;;;4913263;29;20032;-73
2021/03/07 19:25:38;;;;;;;25.27;18.85;;;6.50;66.90;;;;;;4912549;29;20099;-74
2021/03/07 19:28:04;;;;;;;29.70;22.65;;;6.50;67.10;;;;;;4911190;29;20488;-74
2021/03/07 19:30:30;;;;;;;29.80;20.70;;;6.50;67.50;;;;;;4913027;29;20374;-74
2021/03/07 19:32:55;;;;;;;28.90;21.33;;;6.50;67.60;;;;;;4912640;29;20032;-74
2021/03/07 19:35:21;;;;;;;27.85;21.30;;;6.50;67.20;;;;;;4913354;29;20546;-75
2021/03/07 19:37:47;;;;;;;29.35;20.70;;;6.50;67.40;;;;;;4913075;29;20028;-77
2021/03/07 19:40:13;;;;;;;32.75;21.65;;;6.40;67.70;;;;;;4912183;29;20036;-79
2021/03/07 19:42:39;;;;;;;26.73;20.65;;;6.50;67.70;;;;;;4912525;29;20488;-76
2021/03/07 19:45:06;;;;;;;31.02;23.25;;;6.40;67.80;;;;;;4912608;29;20087;-76
2021/03/07 19:47:31;;;;;;;31.98;22.85;;;6.40;68.00;;;;;;4911368;29;20032;-77
2021/03/07 19:49:57;;;;;;;31.92;21.30;;;6.40;68.20;;;;;;4913392;29;20051;-75
2021/03/07 19:52:23;;;;;;;30.13;22.38;;;6.40;68.20;;;;;;4911215;29;20468;-74
2021/03/07 19:54:49;;;;;;;30.83;22.50;;;6.40;68.00;;;;;;4913126;29;20028;-74
2021/03/07 19:57:14;;;;;;;30.38;20.92;;;6.40;68.30;;;;;;4912467;29;20111;-74
2021/03/07 19:59:40;;;;;;;31.05;21.50;;;6.40;68.50;;;;;;4912161;29;20036;-74
2021/03/07 20:02:06;;;;;;;29.00;21.85;;;6.30;68.40;;;;;;4913394;29;20468;-74
2021/03/07 20:04:31;;;;;;;28.25;21.52;;;6.20;68.50;;;;;;4911330;29;20032;-74
2021/03/07 20:06:57;;;;;;;30.85;22.00;;;6.20;68.70;;;;;;4912332;29;20031;-75
2021/03/07 20:09:22;;;;;;;34.08;23.50;;;6.20;69.10;;;;;;4912578;29;20058;-76
2021/03/07 20:11:48;;;;;;;32.13;20.70;;;6.20;69.20;;;;;;4913100;29;20051;-76
2021/03/07 20:14:14;;;;;;;29.88;21.00;;;6.20;69.10;;;;;;4910656;29;20063;-74
2021/03/07 20:16:39;;;;;;;33.92;24.15;;;6.10;69.90;;;;;;4912529;29;20511;-74
2021/03/07 20:19:05;;;;;;;33.20;23.25;;;6.00;69.40;;;;;;4912896;29;20036;-76
2021/03/07 20:21:30;;;;;;;31.83;22.20;;;6.00;69.80;;;;;;4911753;29;20040;-75
2021/03/07 20:23:56;;;;;;;33.08;23.73;;;6.00;69.80;;;;;;4912906;29;20112;-75
2021/03/07 20:26:22;;;;;;;34.97;23.13;;;6.00;70.20;;;;;;4910364;29;20035;-74
2021/03/07 20:28:50;;;;;;;32.92;24.17;;;6.00;70.50;;;;;;4912091;29;20041;-76
2021/03/07 20:31:16;;;;;;;31.10;22.85;;;6.00;70.60;;;;;;4912157;29;20080;-75
2021/03/07 20:33:42;;;;;;;30.83;21.58;;;6.00;70.60;;;;;;4912558;29;20036;-77
2021/03/07 20:36:07;;;;;;;32.85;22.80;;;5.90;70.50;;;;;;4911238;29;20068;-75
2021/03/07 20:38:34;;;;;;;34.45;24.65;;;5.90;70.70;;;;;;4911416;29;20024;-75
2021/03/07 20:40:59;;;;;;;33.67;24.75;;;6.00;71.10;;;;;;4911132;29;20039;-77
2021/03/07 20:43:25;;;;;;;36.20;24.25;;;6.00;71.20;;;;;;4912074;29;20044;-75
2021/03/07 20:45:51;;;;;;;35.95;26.02;;;6.00;71.10;;;;;;4912850;29;20036;-77
2021/03/07 20:48:17;;;;;;;34.95;24.45;;;5.90;71.20;;;;;;4911762;29;20056;-75
2021/03/07 20:50:42;;;;;;;34.13;25.40;;;5.90;71.20;;;;;;4911840;29;20032;-75
2021/03/07 20:53:08;;;;;;;36.20;24.33;;;5.90;71.30;;;;;;4912483;29;20651;-76
2021/03/07 20:55:34;;;;;;;35.15;24.00;;;5.90;71.60;;;;;;4910794;29;20111;-75
2021/03/07 20:57:59;;;;;;;34.28;24.38;;;5.90;71.90;;;;;;4911119;29;20020;-74
2021/03/07 21:00:25;;;;;;;34.10;23.92;;;5.90;71.90;;;;;;4912241;29;20381;-74
2021/03/07 21:02:51;;;;;;;34.72;24.70;;;5.80;72.00;;;;;;4911944;29;20480;-74
2021/03/07 21:05:16;;;;;;;35.70;24.95;;;5.80;72.40;;;;;;4912219;29;20473;-74
2021/03/07 21:07:42;;;;;;;40.67;25.25;;;5.70;72.80;;;;;;4912213;29;20126;-74
2021/03/07 21:10:08;;;;;;;34.78;24.58;;;5.50;73.20;;;;;;4911344;29;20040;-74
2021/03/07 21:12:34;;;;;;;33.65;25.10;;;5.40;73.70;;;;;;4912121;29;20032;-74
2021/03/07 21:15:00;;;;;;;35.70;25.38;;;5.30;74.10;;;;;;4912166;29;20197;-75
2021/03/07 21:17:26;;;;;;;36.45;25.88;;;5.20;74.50;;;;;;4911861;29;20075;-75
2021/03/07 21:19:52;;;;;;;38.63;26.38;;;5.20;75.00;;;;;;4910920;29;20422;-75
2021/03/07 21:22:17;;;;;;;37.30;25.77;;;5.20;75.10;;;;;;4910466;29;20031;-74
2021/03/07 21:24:43;;;;;;;42.35;27.30;;;5.20;75.20;;;;;;4910779;29;20438;-75
2021/03/07 21:27:09;;;;;;;33.90;24.33;;;5.10;75.50;;;;;;4911185;29;20124;-74
2021/03/07 21:29:37;;;;;;;38.95;26.83;;;5.20;75.70;;;;;;4911927;29;20044;-74
2021/03/07 21:32:08;;;;;;;38.40;26.80;;;5.10;75.70;;;;;;4910630;29;20064;-73
2021/03/07 21:34:34;;;;;;;34.53;25.02;;;5.10;76.00;;;;;;4911190;29;20400;-75
2021/03/07 21:37:00;;;;;;;39.35;26.95;;;5.10;76.00;;;;;;4911115;29;20028;-75
2021/03/07 21:39:26;;;;;;;42.25;26.67;;;5.10;76.40;;;;;;4914976;29;20039;-79
2021/03/07 21:41:52;;;;;;;39.95;25.48;;;5.20;76.50;;;;;;4918121;29;20020;-74
2021/03/07 21:44:18;;;;;;;39.35;27.83;;;5.20;76.80;;;;;;4917818;29;20051;-74
2021/03/07 21:46:44;;;;;;;41.45;28.27;;;5.30;76.70;;;;;;4919281;29;20165;-75
2021/03/07 21:49:11;;;;;;;42.55;27.48;;;5.30;76.50;;;;;;4916996;29;20036;-75
2021/03/07 21:51:37;;;;;;;42.00;27.95;;;5.30;76.90;;;;;;4918936;29;20029;-74
2021/03/07 21:54:03;;;;;;;34.88;25.70;;;5.30;76.90;;;;;;4918827;29;20047;-74
2021/03/07 21:56:29;;;;;;;52.88;36.30;;;5.30;77.00;;;;;;4920511;29;20064;-75
2021/03/07 21:58:54;;;;;;;41.05;28.55;;;5.30;77.10;;;;;;4918112;29;20071;-75
2021/03/07 22:01:20;;;;;;;40.35;27.95;;;5.20;77.20;;;;;;4918606;29;20588;-75
2021/03/07 22:03:46;;;;;;;36.55;25.55;;;5.20;77.60;;;;;;4917550;29;20394;-76
2021/03/07 22:06:11;;;;;;;45.75;32.15;;;5.10;77.70;;;;;;4917964;29;20028;-75
2021/03/07 22:08:37;;;;;;;40.38;27.73;;;5.10;77.90;;;;;;4918667;29;20489;-74
2021/03/07 22:11:02;;;;;;;39.08;27.63;;;5.10;78.00;;;;;;4918035;29;20024;-74
2021/03/07 22:13:28;;;;;;;41.53;28.77;;;5.10;78.20;;;;;;4916598;29;20026;-75
2021/03/07 22:15:53;;;;;;;42.45;27.77;;;5.10;78.30;;;;;;4918833;29;20038;-74
2021/03/07 22:18:19;;;;;;;42.33;27.83;;;5.20;78.50;;;;;;4918271;29;20024;-74
2021/03/07 22:20:45;;;;;;;44.72;28.05;;;5.10;78.40;;;;;;4918050;29;20021;-74
2021/03/07 22:23:14;;;;;;;40.92;27.52;;;5.20;78.70;;;;;;4918470;29;20484;-74
2021/03/07 22:25:39;;;;;;;38.78;25.42;;;5.20;78.60;;;;;;4918537;29;20104;-75
2021/03/07 22:28:06;;;;;;;41.95;27.65;;;5.10;78.60;;;;;;4916850;29;20124;-75
2021/03/07 22:30:32;;;;;;;35.97;26.50;;;5.10;78.80;;;;;;4918184;29;20561;-74
2021/03/07 22:32:58;;;;;;;39.10;27.27;;;5.10;78.90;;;;;;4918740;29;20496;-76
2021/03/07 22:35:23;;;;;;;40.83;28.67;;;5.10;78.80;;;;;;4917840;29;20032;-74
2021/03/07 22:37:49;;;;;;;40.33;26.77;;;5.10;78.90;;;;;;4918376;29;20438;-75
2021/03/07 22:40:15;;;;;;;41.33;27.55;;;5.10;79.00;;;;;;4918057;29;20032;-73
2021/03/07 22:42:41;;;;;;;39.58;27.83;;;5.00;79.00;;;;;;4916632;29;20024;-73
2021/03/07 22:45:07;;;;;;;43.17;27.45;;;5.10;79.20;;;;;;4916683;29;20163;-75
2021/03/07 22:47:32;;;;;;;41.65;30.02;;;5.00;79.10;;;;;;4917371;29;20105;-73
2021/03/07 22:49:58;;;;;;;43.95;30.08;;;5.00;79.50;;;;;;4916232;29;20101;-75
2021/03/07 22:52:23;;;;;;;40.70;26.75;;;5.00;79.50;;;;;;4916573;29;20020;-74
2021/03/07 22:54:50;;;;;;;38.83;27.92;;;5.00;79.40;;;;;;4917644;29;20045;-74
2021/03/07 22:57:16;;;;;;;41.00;28.52;;;5.00;79.50;;;;;;4916550;29;20079;-74
2021/03/07 22:59:42;;;;;;;45.30;28.02;;;5.00;79.70;;;;;;4918000;29;20031;-73
2021/03/07 23:02:07;;;;;;;40.47;27.42;;;5.00;79.70;;;;;;4915776;29;20446;-73
2021/03/07 23:04:33;;;;;;;39.50;28.20;;;5.00;79.70;;;;;;4917883;29;20086;-73
2021/03/07 23:06:58;;;;;;;38.28;27.17;;;5.00;79.90;;;;;;4916656;29;20103;-74
2021/03/07 23:09:24;;;;;;;40.05;26.33;;;5.00;79.80;;;;;;4916466;29;20552;-73
2021/03/07 23:11:50;;;;;;;37.13;25.40;;;5.00;79.70;;;;;;4916913;29;20024;-74
2021/03/07 23:14:15;;;;;;;38.53;26.73;;;5.00;79.60;;;;;;4916142;29;20024;-74
2021/03/07 23:16:41;;;;;;;45.85;30.73;;;5.00;79.70;;;;;;4915673;29;20020;-73
2021/03/07 23:19:07;;;;;;;38.08;26.65;;;5.00;80.00;;;;;;4916191;29;20392;-74
2021/03/07 23:21:32;;;;;;;42.35;25.95;;;5.00;79.90;;;;;;4917537;29;20056;-73
2021/03/07 23:23:58;;;;;;;43.15;31.05;;;5.00;79.90;;;;;;4917114;29;20102;-76
2021/03/07 23:26:23;;;;;;;40.22;24.92;;;5.00;79.90;;;;;;4917263;29;20024;-74
2021/03/07 23:28:49;;;;;;;40.97;26.15;;;5.00;79.80;;;;;;4916268;29;20040;-73
2021/03/07 23:31:15;;;;;;;40.13;26.48;;;5.00;79.90;;;;;;4916463;29;20031;-74
2021/03/07 23:33:40;;;;;;;37.88;26.20;;;5.00;80.00;;;;;;4917411;29;20059;-73
2021/03/07 23:36:06;;;;;;;40.75;25.38;;;5.00;80.00;;;;;;4916252;29;20020;-73
2021/03/07 23:38:32;;;;;;;39.95;29.92;;;5.10;80.20;;;;;;4914815;29;20024;-74
2021/03/07 23:40:58;;;;;;;37.00;25.75;;;5.10;80.20;;;;;;4917532;29;20083;-74
2021/03/07 23:43:24;;;;;;;38.90;26.38;;;5.10;80.00;;;;;;4915581;29;20111;-74
2021/03/07 23:45:49;;;;;;;40.58;25.85;;;5.10;80.10;;;;;;4916733;29;20529;-74
2021/03/07 23:48:15;;;;;;;36.15;25.83;;;5.10;80.20;;;;;;4916502;29;20032;-74
2021/03/07 23:50:44;;;;;;;37.53;26.95;;;5.20;80.40;;;;;;4916069;29;20028;-74
2021/03/07 23:53:10;;;;;;;38.38;27.23;;;5.10;80.20;;;;;;4916825;29;20028;-75
2021/03/07 23:55:36;;;;;;;39.00;27.58;;;5.20;80.40;;;;;;4917300;29;20036;-75
2021/03/07 23:58:02;;;;;;;43.38;27.13;;;5.20;81.00;;;;;;4916290;29;20468;-73
